Uraga Maru — JD2163 — position and weather

sailwx.info

Track history (hours):
 
Tides and Currents Weather Stations Pressure Air Temp Water Temp Dewpoint Dewpoint Depression Visibility Wind Speed Wind Dir Waves Ship Positions

Uraga Maru

Last reported at 2015-Apr-01 13:33 UTC. Time now 2015-Apr-01 14:33 UTC.
Position N 35°25' E 139°42'.

Length 40 m; draft 2.8 m.

Type: Tug. MMSI: 431101119.

Date/timePositionNaut miles runAvg speedWind from/ knotsBaromVisibWave heightAir tempDewpointWater temp
2015-Apr-01 13:33N 35°25' E 139°42'2 2.0
2015-Apr-01 12:33N 35°27' E 139°40'5 5.3
2015-Apr-01 11:33N 35°23' E 139°44'8 8.4
2015-Apr-01 10:33N 35°14' E 139°45'7 7.4
2015-Apr-01 09:33N 35°21' E 139°42'1 1.0
2015-Apr-01 08:33N 35°22' E 139°41'5 4.7
2015-Apr-01 07:33N 35°17' E 139°41'0 0.0
2015-Apr-01 06:33N 35°17' E 139°41'0 0.0
2015-Apr-01 05:33N 35°17' E 139°41'0 0.0
2015-Apr-01 04:32N 35°17' E 139°41'0 0.0
2015-Apr-01 03:33N 35°17' E 139°41'0 0.0
2015-Apr-01 02:31N 35°17' E 139°41'0 0.0
2015-Apr-01 01:33N 35°17' E 139°41'0 0.0
2015-Apr-01 00:33N 35°17' E 139°41'0 0.0
2015-Mar-31 23:33N 35°17' E 139°41'0 0.0
2015-Mar-31 22:33N 35°17' E 139°41'0 0.0
2015-Mar-31 21:33N 35°17' E 139°41'0 0.0
2015-Mar-31 20:33N 35°17' E 139°41'0 0.0
2015-Mar-31 19:29N 35°17' E 139°41'0 0.0
2015-Mar-31 18:32N 35°17' E 139°41'0 0.0
2015-Mar-31 17:32N 35°17' E 139°41'0 0.0
2015-Mar-31 16:33N 35°17' E 139°41'0 0.0
2015-Mar-31 15:33N 35°17' E 139°41'0 0.0
2015-Mar-31 14:33N 35°17' E 139°41'0 0.0
2015-Mar-31 13:33N 35°17' E 139°41'0 0.0
2015-Mar-31 12:30N 35°17' E 139°41'0 0.0
2015-Mar-31 11:33N 35°17' E 139°41'0 0.0
2015-Mar-31 10:33N 35°17' E 139°41'0 0.0
2015-Mar-31 09:27N 35°17' E 139°41'0 0.0
2015-Mar-31 08:33N 35°17' E 139°41'0 0.0
2015-Mar-31 07:31N 35°17' E 139°41'0 0.0
2015-Mar-31 06:32N 35°17' E 139°41'0 0.0
2015-Mar-31 05:26N 35°17' E 139°41'0 0.0
2015-Mar-31 04:33N 35°17' E 139°41'0 0.0
2015-Mar-31 03:33N 35°17' E 139°41'0 0.0
2015-Mar-31 02:33N 35°17' E 139°41'0 0.0
2015-Mar-31 01:34N 35°17' E 139°41'8 7.5
2015-Mar-31 00:33N 35°23' E 139°47'8 8.5
2015-Mar-30 23:33N 35°14' E 139°47'3 3.0
2015-Mar-30 22:33N 35°11' E 139°46'3 3.2
2015-Mar-30 21:33N 35°13' E 139°43'6 6.4
2015-Mar-30 20:33N 35°20' E 139°43'3 2.9
2015-Mar-30 19:33N 35°17' E 139°41'0 0.4
2015-Mar-30 18:33N 35°17' E 139°41'0 0.0
2015-Mar-30 17:33N 35°17' E 139°41'0 0.0
2015-Mar-30 16:33N 35°17' E 139°41'0 0.0
2015-Mar-30 15:33N 35°17' E 139°41'0 0.0
2015-Mar-30 14:33N 35°17' E 139°41'0 0.0
2015-Mar-30 13:32N 35°17' E 139°41'0 0.0
2015-Mar-30 12:28N 35°17' E 139°41'0 0.0
2015-Mar-30 11:31N 35°17' E 139°41'0 0.0
2015-Mar-30 10:33N 35°17' E 139°41'2 1.6
2015-Mar-30 09:33N 35°18' E 139°42'3 3.2
2015-Mar-30 08:33N 35°16' E 139°45'5 5.3
2015-Mar-30 07:33N 35°19' E 139°40'2 0.3
2015-Mar-30 02:31N 35°17' E 139°41'0 0.0
2015-Mar-30 01:11N 35°17' E 139°41'0 0.0
2015-Mar-30 00:32N 35°17' E 139°41'0 0.0
2015-Mar-29 23:30N 35°17' E 139°41'0 0.0
2015-Mar-29 22:33N 35°17' E 139°41'0 0.0
2015-Mar-29 21:33N 35°17' E 139°41'0 0.0
2015-Mar-29 20:33N 35°17' E 139°41'0 0.0
2015-Mar-29 19:33N 35°17' E 139°41'0 0.0
2015-Mar-29 18:33N 35°17' E 139°41'0 0.0
2015-Mar-29 17:33N 35°17' E 139°41'0 0.0
2015-Mar-29 16:33N 35°17' E 139°41'0 0.0
2015-Mar-29 15:33N 35°17' E 139°41'0 0.0
2015-Mar-29 14:33N 35°17' E 139°41'0 0.0
2015-Mar-29 13:33N 35°17' E 139°41'0 0.0
2015-Mar-29 12:33N 35°17' E 139°41'0 0.0
2015-Mar-29 11:33N 35°17' E 139°41'0 0.0
2015-Mar-29 10:33N 35°17' E 139°41'0 0.0
2015-Mar-29 09:33N 35°17' E 139°41'0 0.0
2015-Mar-29 08:33N 35°17' E 139°41'0 0.0
2015-Mar-29 07:33N 35°17' E 139°41'0 0.0
2015-Mar-29 06:33N 35°17' E 139°41'0 0.0
2015-Mar-29 05:33N 35°17' E 139°41'0 0.0
2015-Mar-29 04:33N 35°17' E 139°41'0 0.0
2015-Mar-29 03:33N 35°17' E 139°41'0 0.0
2015-Mar-29 02:33N 35°17' E 139°41'0 0.0
2015-Mar-29 01:32N 35°17' E 139°41'0 0.0
2015-Mar-29 00:33N 35°17' E 139°41'0 0.0
2015-Mar-28 23:33N 35°17' E 139°41'0 0.0
2015-Mar-28 22:29N 35°17' E 139°41'2 2.4
2015-Mar-28 21:33N 35°19' E 139°42'3 3.0
2015-Mar-28 20:33N 35°21' E 139°45'1111.2
2015-Mar-28 19:33N 35°10' E 139°46'9 8.7
2015-Mar-28 18:33N 35°17' E 139°41'1 0.9
2015-Mar-28 17:33N 35°17' E 139°41'0 0.0
2015-Mar-28 16:33N 35°17' E 139°41'0 0.0
2015-Mar-28 15:33N 35°17' E 139°41'0 0.0
2015-Mar-28 14:33N 35°17' E 139°41'1 1.1
2015-Mar-28 13:33N 35°18' E 139°41'1 1.3
2015-Mar-28 12:33N 35°19' E 139°41'6 4.1
2015-Mar-28 11:09N 35°13' E 139°43'0 0.0
2015-Mar-28 10:31N 35°13' E 139°43'2 1.8
2015-Mar-28 09:33N 35°13' E 139°45'10 9.6
2015-Mar-28 08:33N 35°22' E 139°42'1 1.1
2015-Mar-28 07:33N 35°21' E 139°42'8 7.9
2015-Mar-28 06:33N 35°14' E 139°46'1111.5
2015-Mar-28 05:34N 35°26' E 139°45'1111.1
2015-Mar-28 04:33N 35°29' E 139°58'0 0.0
2015-Mar-28 03:33N 35°29' E 139°58'1 1.0
2015-Mar-28 02:33N 35°29' E 139°57'0 0.0
2015-Mar-28 01:33N 35°29' E 139°57'8 8.1
2015-Mar-28 00:33N 35°25' E 139°48'1111.1
2015-Mar-27 23:33N 35°14' E 139°47'2 1.8
2015-Mar-27 22:33N 35°15' E 139°45'4 4.2
2015-Mar-27 21:32N 35°17' E 139°41'0 0.0
2015-Mar-27 20:33N 35°17' E 139°41'0 0.0
2015-Mar-27 19:33N 35°17' E 139°41'0 0.0
2015-Mar-27 18:33N 35°17' E 139°41'0 0.0
2015-Mar-27 17:33N 35°17' E 139°41'0 0.0
2015-Mar-27 16:33N 35°17' E 139°41'0 0.0
2015-Mar-27 15:33N 35°17' E 139°41'0 0.0
2015-Mar-27 14:33N 35°17' E 139°41'0 0.0
2015-Mar-27 13:33N 35°17' E 139°41'0 0.0
2015-Mar-27 12:32N 35°17' E 139°41'0 0.0
2015-Mar-27 11:32N 35°17' E 139°41'0 0.0
2015-Mar-27 10:33N 35°17' E 139°41'0 0.0
2015-Mar-27 09:31N 35°17' E 139°41'0 0.0
2015-Mar-27 08:33N 35°17' E 139°41'0 0.0
2015-Mar-27 07:32N 35°17' E 139°41'0 0.0
2015-Mar-27 06:33N 35°17' E 139°41'0 0.0
2015-Mar-27 05:33N 35°17' E 139°41'0 0.0
2015-Mar-27 04:27N 35°17' E 139°41'0 0.0
2015-Mar-27 03:26N 35°17' E 139°41'5 6.2
2015-Mar-27 02:33N 35°14' E 139°46'8 7.7
2015-Mar-27 01:33N 35°21' E 139°42'5 5.3
2015-Mar-27 00:33N 35°22' E 139°49'0 0.4
2015-Mar-26 23:33N 35°21' E 139°49'0 0.4
2015-Mar-26 22:33N 35°22' E 139°49'3 3.2
2015-Mar-26 21:34N 35°24' E 139°46'1212.2
2015-Mar-26 20:33N 35°11' E 139°47'5 4.8
2015-Mar-26 19:33N 35°16' E 139°45'4 3.6
2015-Mar-26 18:33N 35°17' E 139°41'0 0.0
2015-Mar-26 17:34N 35°17' E 139°41'0 0.0
2015-Mar-26 16:33N 35°17' E 139°41'0 0.0
2015-Mar-26 15:33N 35°17' E 139°41'0 0.0
2015-Mar-26 14:34N 35°17' E 139°41'0 0.0
2015-Mar-26 13:34N 35°17' E 139°41'0 0.0
2015-Mar-26 12:33N 35°17' E 139°41'2 0.2
2015-Mar-26 04:29N 35°19' E 139°42'1212.5
2015-Mar-26 03:32N 35°29' E 139°50'1313.5
2015-Mar-26 02:33N 35°33' E 140°05'0 0.3
2015-Mar-26 01:33N 35°33' E 140°05'1 0.6
2015-Mar-26 00:34N 35°33' E 140°05'1211.5
2015-Mar-25 23:33N 35°27' E 139°53'1010.1
2015-Mar-25 22:31N 35°19' E 139°44'10 9.9
2015-Mar-25 21:33N 35°10' E 139°47'8 8.5
2015-Mar-25 20:33N 35°17' E 139°41'0 0.0
2015-Mar-25 07:12N 35°17' E 139°41'5 8.1
2015-Mar-25 06:33N 35°14' E 139°46'7 7.4
2015-Mar-25 05:34N 35°21' E 139°42'5 5.1
2015-Mar-25 04:33N 35°21' E 139°49'1 1.2
2015-Mar-25 03:33N 35°20' E 139°50'9 8.7
2015-Mar-25 02:34N 35°27' E 139°43'8 7.7
2015-Mar-25 01:33N 35°19' E 139°44'1010.1
2015-Mar-25 00:33N 35°09' E 139°47'5 5.0
2015-Mar-24 23:33N 35°13' E 139°43'4 3.9
2015-Mar-24 22:33N 35°17' E 139°45'7 7.3
2015-Mar-24 21:34N 35°24' E 139°44'7 6.4
2015-Mar-24 20:24N 35°17' E 139°41'0 0.0
2015-Mar-24 19:10N 35°17' E 139°41'0 0.0
2015-Mar-24 18:33N 35°17' E 139°41'0 0.0
2015-Mar-24 17:25N 35°17' E 139°41'0 0.0
2015-Mar-24 14:11N 35°17' E 139°41'0 0.0
2015-Mar-24 13:27N 35°17' E 139°41'0 0.0
2015-Mar-24 12:26N 35°17' E 139°41'0 0.0
2015-Mar-24 11:31N 35°17' E 139°41'0 0.0
2015-Mar-24 10:15N 35°17' E 139°41'0 0.0
2015-Mar-24 06:04N 35°17' E 139°41'0 0.0
2015-Mar-24 05:07N 35°17' E 139°41'0 0.0
2015-Mar-24 04:33N 35°17' E 139°41'8 7.8
2015-Mar-24 03:33N 35°24' E 139°43'4 4.3
2015-Mar-24 02:33N 35°20' E 139°44'1010.1
2015-Mar-24 01:33N 35°11' E 139°47'4 3.4
2015-Mar-24 00:19N 35°13' E 139°43'0 0.0
2015-Mar-23 23:33N 35°13' E 139°43'0 0.3
2015-Mar-23 22:34N 35°13' E 139°43'4 4.3
2015-Mar-23 21:33N 35°17' E 139°41'0 0.0
2015-Mar-23 20:33N 35°17' E 139°41'0 0.0
2015-Mar-23 19:27N 35°17' E 139°41'0 0.0
2015-Mar-23 14:09N 35°17' E 139°41'0 0.0
2015-Mar-23 13:18N 35°17' E 139°41'0 0.0
2015-Mar-23 11:19N 35°17' E 139°41'0 0.0
2015-Mar-23 10:24N 35°17' E 139°41'0 0.0
2015-Mar-23 08:32N 35°17' E 139°41'9 9.3
2015-Mar-23 07:33N 35°25' E 139°47'1212.2
2015-Mar-23 06:33N 35°13' E 139°47'3 3.3
2015-Mar-23 05:33N 35°13' E 139°43'6 5.9
2015-Mar-23 04:33N 35°19' E 139°43'5 5.3
2015-Mar-23 03:33N 35°22' E 139°48'1 1.4
2015-Mar-23 02:33N 35°21' E 139°49'8 7.6
2015-Mar-23 01:33N 35°17' E 139°41'0 0.1
2015-Mar-22 23:09N 35°17' E 139°41'0 0.2
2015-Mar-22 22:26N 35°17' E 139°41'0 0.0
2015-Mar-22 21:32N 35°17' E 139°41'0 0.0
2015-Mar-22 18:26N 35°17' E 139°41'0 0.0
2015-Mar-22 17:32N 35°17' E 139°41'0 0.0
2015-Mar-22 16:30N 35°17' E 139°41'0 0.0
2015-Mar-22 15:32N 35°17' E 139°41'0 0.0
2015-Mar-22 14:33N 35°17' E 139°41'  
Track history (hours):
 
Tides and Currents Weather Stations Pressure Air Temp Water Temp Dewpoint Dewpoint Depression Visibility Wind Speed Wind Dir Waves Ship Positions

Uraga Maru

Last reported at 2015-Apr-01 13:33 UTC. Time now 2015-Apr-01 14:33 UTC.
Position N 35°25' E 139°42'.

Length 40 m; draft 2.8 m.

Type: Tug. MMSI: 431101119.

Date/timePositionNaut miles runAvg speedWind from/ knotsBaromVisibWave heightAir tempDewpointWater temp
2015-Apr-01 13:33N 35°25' E 139°42'2 2.0
2015-Apr-01 12:33N 35°27' E 139°40'5 5.3
2015-Apr-01 11:33N 35°23' E 139°44'8 8.4
2015-Apr-01 10:33N 35°14' E 139°45'7 7.4
2015-Apr-01 09:33N 35°21' E 139°42'1 1.0
2015-Apr-01 08:33N 35°22' E 139°41'5 4.7
2015-Apr-01 07:33N 35°17' E 139°41'0 0.0
2015-Apr-01 06:33N 35°17' E 139°41'0 0.0
2015-Apr-01 05:33N 35°17' E 139°41'0 0.0
2015-Apr-01 04:32N 35°17' E 139°41'0 0.0
2015-Apr-01 03:33N 35°17' E 139°41'0 0.0
2015-Apr-01 02:31N 35°17' E 139°41'0 0.0
2015-Apr-01 01:33N 35°17' E 139°41'0 0.0
2015-Apr-01 00:33N 35°17' E 139°41'0 0.0
2015-Mar-31 23:33N 35°17' E 139°41'0 0.0
2015-Mar-31 22:33N 35°17' E 139°41'0 0.0
2015-Mar-31 21:33N 35°17' E 139°41'0 0.0
2015-Mar-31 20:33N 35°17' E 139°41'0 0.0
2015-Mar-31 19:29N 35°17' E 139°41'0 0.0
2015-Mar-31 18:32N 35°17' E 139°41'0 0.0
2015-Mar-31 17:32N 35°17' E 139°41'0 0.0
2015-Mar-31 16:33N 35°17' E 139°41'0 0.0
2015-Mar-31 15:33N 35°17' E 139°41'0 0.0
2015-Mar-31 14:33N 35°17' E 139°41'0 0.0
2015-Mar-31 13:33N 35°17' E 139°41'0 0.0
2015-Mar-31 12:30N 35°17' E 139°41'0 0.0
2015-Mar-31 11:33N 35°17' E 139°41'0 0.0
2015-Mar-31 10:33N 35°17' E 139°41'0 0.0
2015-Mar-31 09:27N 35°17' E 139°41'0 0.0
2015-Mar-31 08:33N 35°17' E 139°41'0 0.0
2015-Mar-31 07:31N 35°17' E 139°41'0 0.0
2015-Mar-31 06:32N 35°17' E 139°41'0 0.0
2015-Mar-31 05:26N 35°17' E 139°41'0 0.0
2015-Mar-31 04:33N 35°17' E 139°41'0 0.0
2015-Mar-31 03:33N 35°17' E 139°41'0 0.0
2015-Mar-31 02:33N 35°17' E 139°41'0 0.0
2015-Mar-31 01:34N 35°17' E 139°41'8 7.5
2015-Mar-31 00:33N 35°23' E 139°47'8 8.5
2015-Mar-30 23:33N 35°14' E 139°47'3 3.0
2015-Mar-30 22:33N 35°11' E 139°46'3 3.2
2015-Mar-30 21:33N 35°13' E 139°43'6 6.4
2015-Mar-30 20:33N 35°20' E 139°43'3 2.9
2015-Mar-30 19:33N 35°17' E 139°41'0 0.4
2015-Mar-30 18:33N 35°17' E 139°41'0 0.0
2015-Mar-30 17:33N 35°17' E 139°41'0 0.0
2015-Mar-30 16:33N 35°17' E 139°41'0 0.0
2015-Mar-30 15:33N 35°17' E 139°41'0 0.0
2015-Mar-30 14:33N 35°17' E 139°41'0 0.0
2015-Mar-30 13:32N 35°17' E 139°41'0 0.0
2015-Mar-30 12:28N 35°17' E 139°41'0 0.0
2015-Mar-30 11:31N 35°17' E 139°41'0 0.0
2015-Mar-30 10:33N 35°17' E 139°41'2 1.6
2015-Mar-30 09:33N 35°18' E 139°42'3 3.2
2015-Mar-30 08:33N 35°16' E 139°45'5 5.3
2015-Mar-30 07:33N 35°19' E 139°40'2 0.3
2015-Mar-30 02:31N 35°17' E 139°41'0 0.0
2015-Mar-30 01:11N 35°17' E 139°41'0 0.0
2015-Mar-30 00:32N 35°17' E 139°41'0 0.0
2015-Mar-29 23:30N 35°17' E 139°41'0 0.0
2015-Mar-29 22:33N 35°17' E 139°41'0 0.0
2015-Mar-29 21:33N 35°17' E 139°41'0 0.0
2015-Mar-29 20:33N 35°17' E 139°41'0 0.0
2015-Mar-29 19:33N 35°17' E 139°41'0 0.0
2015-Mar-29 18:33N 35°17' E 139°41'0 0.0
2015-Mar-29 17:33N 35°17' E 139°41'0 0.0
2015-Mar-29 16:33N 35°17' E 139°41'0 0.0
2015-Mar-29 15:33N 35°17' E 139°41'0 0.0
2015-Mar-29 14:33N 35°17' E 139°41'0 0.0
2015-Mar-29 13:33N 35°17' E 139°41'0 0.0
2015-Mar-29 12:33N 35°17' E 139°41'0 0.0
2015-Mar-29 11:33N 35°17' E 139°41'0 0.0
2015-Mar-29 10:33N 35°17' E 139°41'0 0.0
2015-Mar-29 09:33N 35°17' E 139°41'0 0.0
2015-Mar-29 08:33N 35°17' E 139°41'0 0.0
2015-Mar-29 07:33N 35°17' E 139°41'0 0.0
2015-Mar-29 06:33N 35°17' E 139°41'0 0.0
2015-Mar-29 05:33N 35°17' E 139°41'0 0.0
2015-Mar-29 04:33N 35°17' E 139°41'0 0.0
2015-Mar-29 03:33N 35°17' E 139°41'0 0.0
2015-Mar-29 02:33N 35°17' E 139°41'0 0.0
2015-Mar-29 01:32N 35°17' E 139°41'0 0.0
2015-Mar-29 00:33N 35°17' E 139°41'0 0.0
2015-Mar-28 23:33N 35°17' E 139°41'0 0.0
2015-Mar-28 22:29N 35°17' E 139°41'2 2.4
2015-Mar-28 21:33N 35°19' E 139°42'3 3.0
2015-Mar-28 20:33N 35°21' E 139°45'1111.2
2015-Mar-28 19:33N 35°10' E 139°46'9 8.7
2015-Mar-28 18:33N 35°17' E 139°41'1 0.9
2015-Mar-28 17:33N 35°17' E 139°41'0 0.0
2015-Mar-28 16:33N 35°17' E 139°41'0 0.0
2015-Mar-28 15:33N 35°17' E 139°41'0 0.0
2015-Mar-28 14:33N 35°17' E 139°41'1 1.1
2015-Mar-28 13:33N 35°18' E 139°41'1 1.3
2015-Mar-28 12:33N 35°19' E 139°41'6 4.1
2015-Mar-28 11:09N 35°13' E 139°43'0 0.0
2015-Mar-28 10:31N 35°13' E 139°43'2 1.8
2015-Mar-28 09:33N 35°13' E 139°45'10 9.6
2015-Mar-28 08:33N 35°22' E 139°42'1 1.1
2015-Mar-28 07:33N 35°21' E 139°42'8 7.9
2015-Mar-28 06:33N 35°14' E 139°46'1111.5
2015-Mar-28 05:34N 35°26' E 139°45'1111.1
2015-Mar-28 04:33N 35°29' E 139°58'0 0.0
2015-Mar-28 03:33N 35°29' E 139°58'1 1.0
2015-Mar-28 02:33N 35°29' E 139°57'0 0.0
2015-Mar-28 01:33N 35°29' E 139°57'8 8.1
2015-Mar-28 00:33N 35°25' E 139°48'1111.1
2015-Mar-27 23:33N 35°14' E 139°47'2 1.8
2015-Mar-27 22:33N 35°15' E 139°45'4 4.2
2015-Mar-27 21:32N 35°17' E 139°41'0 0.0
2015-Mar-27 20:33N 35°17' E 139°41'0 0.0
2015-Mar-27 19:33N 35°17' E 139°41'0 0.0
2015-Mar-27 18:33N 35°17' E 139°41'0 0.0
2015-Mar-27 17:33N 35°17' E 139°41'0 0.0
2015-Mar-27 16:33N 35°17' E 139°41'0 0.0
2015-Mar-27 15:33N 35°17' E 139°41'0 0.0
2015-Mar-27 14:33N 35°17' E 139°41'0 0.0
2015-Mar-27 13:33N 35°17' E 139°41'0 0.0
2015-Mar-27 12:32N 35°17' E 139°41'0 0.0
2015-Mar-27 11:32N 35°17' E 139°41'0 0.0
2015-Mar-27 10:33N 35°17' E 139°41'0 0.0
2015-Mar-27 09:31N 35°17' E 139°41'0 0.0
2015-Mar-27 08:33N 35°17' E 139°41'0 0.0
2015-Mar-27 07:32N 35°17' E 139°41'0 0.0
2015-Mar-27 06:33N 35°17' E 139°41'0 0.0
2015-Mar-27 05:33N 35°17' E 139°41'0 0.0
2015-Mar-27 04:27N 35°17' E 139°41'0 0.0
2015-Mar-27 03:26N 35°17' E 139°41'5 6.2
2015-Mar-27 02:33N 35°14' E 139°46'8 7.7
2015-Mar-27 01:33N 35°21' E 139°42'5 5.3
2015-Mar-27 00:33N 35°22' E 139°49'0 0.4
2015-Mar-26 23:33N 35°21' E 139°49'0 0.4
2015-Mar-26 22:33N 35°22' E 139°49'3 3.2
2015-Mar-26 21:34N 35°24' E 139°46'1212.2
2015-Mar-26 20:33N 35°11' E 139°47'5 4.8
2015-Mar-26 19:33N 35°16' E 139°45'4 3.6
2015-Mar-26 18:33N 35°17' E 139°41'0 0.0
2015-Mar-26 17:34N 35°17' E 139°41'0 0.0
2015-Mar-26 16:33N 35°17' E 139°41'0 0.0
2015-Mar-26 15:33N 35°17' E 139°41'0 0.0
2015-Mar-26 14:34N 35°17' E 139°41'0 0.0
2015-Mar-26 13:34N 35°17' E 139°41'0 0.0
2015-Mar-26 12:33N 35°17' E 139°41'2 0.2
2015-Mar-26 04:29N 35°19' E 139°42'1212.5
2015-Mar-26 03:32N 35°29' E 139°50'1313.5
2015-Mar-26 02:33N 35°33' E 140°05'0 0.3
2015-Mar-26 01:33N 35°33' E 140°05'1 0.6
2015-Mar-26 00:34N 35°33' E 140°05'1211.5
2015-Mar-25 23:33N 35°27' E 139°53'1010.1
2015-Mar-25 22:31N 35°19' E 139°44'10 9.9
2015-Mar-25 21:33N 35°10' E 139°47'8 8.5
2015-Mar-25 20:33N 35°17' E 139°41'0 0.0
2015-Mar-25 07:12N 35°17' E 139°41'5 8.1
2015-Mar-25 06:33N 35°14' E 139°46'7 7.4
2015-Mar-25 05:34N 35°21' E 139°42'5 5.1
2015-Mar-25 04:33N 35°21' E 139°49'1 1.2
2015-Mar-25 03:33N 35°20' E 139°50'9 8.7
2015-Mar-25 02:34N 35°27' E 139°43'8 7.7
2015-Mar-25 01:33N 35°19' E 139°44'1010.1
2015-Mar-25 00:33N 35°09' E 139°47'5 5.0
2015-Mar-24 23:33N 35°13' E 139°43'4 3.9
2015-Mar-24 22:33N 35°17' E 139°45'7 7.3
2015-Mar-24 21:34N 35°24' E 139°44'7 6.4
2015-Mar-24 20:24N 35°17' E 139°41'0 0.0
2015-Mar-24 19:10N 35°17' E 139°41'0 0.0
2015-Mar-24 18:33N 35°17' E 139°41'0 0.0
2015-Mar-24 17:25N 35°17' E 139°41'0 0.0
2015-Mar-24 14:11N 35°17' E 139°41'0 0.0
2015-Mar-24 13:27N 35°17' E 139°41'0 0.0
2015-Mar-24 12:26N 35°17' E 139°41'0 0.0
2015-Mar-24 11:31N 35°17' E 139°41'0 0.0
2015-Mar-24 10:15N 35°17' E 139°41'0 0.0
2015-Mar-24 06:04N 35°17' E 139°41'0 0.0
2015-Mar-24 05:07N 35°17' E 139°41'0 0.0
2015-Mar-24 04:33N 35°17' E 139°41'8 7.8
2015-Mar-24 03:33N 35°24' E 139°43'4 4.3
2015-Mar-24 02:33N 35°20' E 139°44'1010.1
2015-Mar-24 01:33N 35°11' E 139°47'4 3.4
2015-Mar-24 00:19N 35°13' E 139°43'0 0.0
2015-Mar-23 23:33N 35°13' E 139°43'0 0.3
2015-Mar-23 22:34N 35°13' E 139°43'4 4.3
2015-Mar-23 21:33N 35°17' E 139°41'0 0.0
2015-Mar-23 20:33N 35°17' E 139°41'0 0.0
2015-Mar-23 19:27N 35°17' E 139°41'0 0.0
2015-Mar-23 14:09N 35°17' E 139°41'0 0.0
2015-Mar-23 13:18N 35°17' E 139°41'0 0.0
2015-Mar-23 11:19N 35°17' E 139°41'0 0.0
2015-Mar-23 10:24N 35°17' E 139°41'0 0.0
2015-Mar-23 08:32N 35°17' E 139°41'9 9.3
2015-Mar-23 07:33N 35°25' E 139°47'1212.2
2015-Mar-23 06:33N 35°13' E 139°47'3 3.3
2015-Mar-23 05:33N 35°13' E 139°43'6 5.9
2015-Mar-23 04:33N 35°19' E 139°43'5 5.3
2015-Mar-23 03:33N 35°22' E 139°48'1 1.4
2015-Mar-23 02:33N 35°21' E 139°49'8 7.6
2015-Mar-23 01:33N 35°17' E 139°41'0 0.1
2015-Mar-22 23:09N 35°17' E 139°41'0 0.2
2015-Mar-22 22:26N 35°17' E 139°41'0 0.0
2015-Mar-22 21:32N 35°17' E 139°41'0 0.0
2015-Mar-22 18:26N 35°17' E 139°41'0 0.0
2015-Mar-22 17:32N 35°17' E 139°41'0 0.0
2015-Mar-22 16:30N 35°17' E 139°41'0 0.0
2015-Mar-22 15:32N 35°17' E 139°41'0 0.0
2015-Mar-22 14:33N 35°17' E 139°41'  

Dump ship's entire track history